Time;durP1;ratioP1;P1;durP2;ratioP2;P2;SDS_P1;SDS_P2;PMS_P1;PMS_P2;Temp;Humidity;BMP_temperature;BMP_pressure;BME280_temperature;BME280_humidity;BME280_pressure;Samples;Min_cycle;Max_cycle;Signal;HPM_P1;HPM_P2
2022/07/17 00:01:16;;;;;;;17.20;10.43;;;;;;;;;;3391056;42;20079;-58
2022/07/17 00:03:41;;;;;;;17.65;10.43;;;;;;;;;;3388658;42;20078;-58
2022/07/17 00:06:07;;;;;;;18.73;10.55;;;;;;;;;;3390587;42;20103;-56
2022/07/17 00:08:34;;;;;;;18.10;11.07;;;;;;;;;;3388625;42;20632;-56
2022/07/17 00:11:01;;;;;;;17.27;10.48;;;;;;;;;;3389036;42;20164;-57
2022/07/17 00:13:27;;;;;;;18.08;11.27;;;;;;;;;;3378836;42;20597;-58
2022/07/17 00:15:53;;;;;;;18.38;10.68;;;;;;;;;;3390561;42;20113;-58
2022/07/17 00:18:19;;;;;;;19.48;11.07;;;;;;;;;;3388806;42;20087;-57
2022/07/17 00:20:47;;;;;;;19.47;10.40;;;;;;;;;;3384936;42;20188;-57
2022/07/17 00:23:13;;;;;;;17.75;10.63;;;;;;;;;;3392899;42;20101;-58
2022/07/17 00:25:40;;;;;;;16.33;10.13;;;;;;;;;;3377493;42;20078;-58
2022/07/17 00:28:06;;;;;;;16.17;9.57;;;;;;;;;;3388566;42;20189;-59
2022/07/17 00:30:32;;;;;;;17.57;9.33;;;;;;;;;;3385878;42;20137;-59
2022/07/17 00:32:58;;;;;;;19.58;11.30;;;;;;;;;;3388211;42;20170;-58
2022/07/17 00:35:24;;;;;;;18.42;11.10;;;;;;;;;;3384473;42;20522;-58
2022/07/17 00:37:51;;;;;;;17.35;11.05;;;;;;;;;;3391547;42;20868;-58
2022/07/17 00:40:20;;;;;;;16.97;10.43;;;;;;;;;;3388590;42;20087;-58
2022/07/17 00:42:46;;;;;;;21.10;10.98;;;;;;;;;;3386409;42;20578;-58
2022/07/17 00:45:12;;;;;;;16.55;10.38;;;;;;;;;;3392068;42;20090;-58
2022/07/17 00:48:01;;;;;;;14.90;9.13;;;;;;;;;;3388200;42;20129;-58
2022/07/17 00:50:29;;;;;;;16.10;9.10;;;;;;;;;;3391446;42;20568;-58
2022/07/17 00:52:55;;;;;;;16.63;9.07;;;;;;;;;;3390808;42;20118;-57
2022/07/17 00:55:21;;;;;;;16.67;10.30;;;;;;;;;;3389163;42;20098;-57
2022/07/17 00:57:48;;;;;;;16.95;9.05;;;;;;;;;;3387858;42;20098;-58
2022/07/17 01:00:15;;;;;;;15.25;9.27;;;;;;;;;;3400758;42;20100;-59
2022/07/17 01:02:44;;;;;;;18.70;10.02;;;;;;;;;;3395584;42;20093;-59
2022/07/17 01:05:10;;;;;;;17.70;9.77;;;;;;;;;;3389173;42;20113;-57
2022/07/17 01:07:36;;;;;;;19.58;10.00;;;;;;;;;;3389504;42;20091;-56
2022/07/17 01:10:03;;;;;;;15.75;9.80;;;;;;;;;;3401739;42;20082;-55
2022/07/17 01:12:29;;;;;;;15.68;9.57;;;;;;;;;;3400601;42;20125;-58
2022/07/17 01:14:55;;;;;;;16.27;10.23;;;;;;;;;;3391802;42;20096;-57
2022/07/17 01:17:24;;;;;;;19.10;10.13;;;;;;;;;;3397082;42;20607;-58
2022/07/17 01:19:58;;;;;;;16.35;10.68;;;;;;;;;;3389212;42;20601;-58
2022/07/17 01:22:27;;;;;;;15.07;9.20;;;;;;;;;;3395516;42;20098;-57
2022/07/17 01:24:54;;;;;;;17.60;9.77;;;;;;;;;;3395650;42;20147;-58
2022/07/17 01:27:20;;;;;;;15.50;8.90;;;;;;;;;;3397341;42;20145;-57
2022/07/17 01:29:49;;;;;;;15.90;9.93;;;;;;;;;;3391522;42;20608;-58
2022/07/17 01:32:15;;;;;;;13.73;9.10;;;;;;;;;;3399175;42;20151;-58
2022/07/17 01:34:41;;;;;;;15.00;9.15;;;;;;;;;;3400733;42;20095;-58
2022/07/17 01:37:06;;;;;;;14.83;9.03;;;;;;;;;;3389635;42;20511;-57
2022/07/17 01:40:15;;;;;;;16.20;8.77;;;;;;;;;;3399042;42;20576;-56
2022/07/17 01:42:22;;;;;;;14.57;8.07;;;;;;;;;;3390154;42;20105;-57
2022/07/17 01:44:48;;;;;;;13.10;7.75;;;;;;;;;;3385779;42;20156;-56
2022/07/17 01:47:15;;;;;;;11.60;7.07;;;;;;;;;;3393977;42;20082;-58
2022/07/17 01:49:45;;;;;;;12.65;7.45;;;;;;;;;;3388649;42;20129;-58
2022/07/17 01:52:11;;;;;;;11.60;7.28;;;;;;;;;;3389301;42;20147;-59
2022/07/17 01:54:37;;;;;;;14.65;7.45;;;;;;;;;;3393716;42;20615;-60
2022/07/17 01:57:03;;;;;;;12.57;7.30;;;;;;;;;;3393457;42;20692;-58
2022/07/17 01:59:29;;;;;;;13.77;7.07;;;;;;;;;;3385628;42;20079;-57
2022/07/17 02:01:55;;;;;;;12.40;7.03;;;;;;;;;;3385283;42;20160;-60
2022/07/17 02:04:21;;;;;;;11.90;7.45;;;;;;;;;;3390290;42;20148;-60
2022/07/17 02:06:47;;;;;;;12.10;6.68;;;;;;;;;;3389873;42;20087;-57
2022/07/17 02:09:13;;;;;;;11.53;6.67;;;;;;;;;;3389262;42;20090;-58
2022/07/17 02:11:38;;;;;;;13.10;6.70;;;;;;;;;;3386133;42;20138;-57
2022/07/17 02:14:05;;;;;;;10.38;6.63;;;;;;;;;;3390243;42;20074;-58
2022/07/17 02:16:30;;;;;;;12.20;7.13;;;;;;;;;;3393468;42;20120;-57
2022/07/17 02:18:56;;;;;;;11.50;6.60;;;;;;;;;;3389156;42;20611;-58
2022/07/17 02:21:24;;;;;;;11.00;6.68;;;;;;;;;;3380150;42;20090;-56
2022/07/17 02:23:50;;;;;;;11.77;6.30;;;;;;;;;;3376595;42;20083;-55
2022/07/17 02:26:16;;;;;;;9.93;6.40;;;;;;;;;;3391477;42;20097;-66
2022/07/17 02:28:43;;;;;;;10.93;6.70;;;;;;;;;;3391188;42;20105;-57
2022/07/17 02:31:09;;;;;;;12.23;6.50;;;;;;;;;;3384986;42;20134;-57
2022/07/17 02:33:35;;;;;;;11.38;6.72;;;;;;;;;;3392211;42;20485;-57
2022/07/17 02:36:01;;;;;;;11.03;6.80;;;;;;;;;;3389229;42;20086;-56
2022/07/17 02:38:27;;;;;;;10.00;6.70;;;;;;;;;;3386673;42;20098;-57
2022/07/17 02:40:53;;;;;;;10.05;7.03;;;;;;;;;;3390274;42;20106;-58
2022/07/17 02:43:19;;;;;;;11.00;6.65;;;;;;;;;;3391865;42;20079;-57
2022/07/17 02:45:45;;;;;;;11.33;7.00;;;;;;;;;;3388686;42;20094;-59
2022/07/17 02:48:11;;;;;;;12.07;6.78;;;;;;;;;;3388953;42;20161;-57
2022/07/17 02:50:42;;;;;;;11.48;6.75;;;;;;;;;;3378578;42;20857;-57
2022/07/17 02:53:08;;;;;;;12.30;6.73;;;;;;;;;;3386848;42;20712;-58
2022/07/17 02:55:34;;;;;;;10.77;6.27;;;;;;;;;;3392132;42;20407;-54
2022/07/17 02:58:00;;;;;;;12.63;6.72;;;;;;;;;;3385037;42;20106;-57
2022/07/17 03:00:26;;;;;;;13.48;7.00;;;;;;;;;;3385470;42;20122;-58
2022/07/17 03:02:52;;;;;;;10.40;6.60;;;;;;;;;;3391356;42;20162;-56
2022/07/17 03:05:18;;;;;;;10.63;6.57;;;;;;;;;;3384896;42;20126;-54
2022/07/17 03:07:45;;;;;;;12.00;7.00;;;;;;;;;;3384649;42;20355;-56
2022/07/17 03:10:11;;;;;;;10.35;6.32;;;;;;;;;;3381352;42;20466;-55
2022/07/17 03:12:37;;;;;;;11.23;6.40;;;;;;;;;;3389102;42;20137;-57
2022/07/17 03:15:05;;;;;;;10.37;6.23;;;;;;;;;;3386744;42;20544;-57
2022/07/17 03:17:39;;;;;;;10.48;6.45;;;;;;;;;;3377753;42;20091;-56
2022/07/17 03:20:08;;;;;;;11.40;6.57;;;;;;;;;;3378875;42;20573;-57
2022/07/17 03:22:51;;;;;;;10.30;5.93;;;;;;;;;;3376873;42;20097;-59
2022/07/17 03:25:23;;;;;;;9.63;5.70;;;;;;;;;;3370425;42;20554;-56
2022/07/17 03:27:54;;;;;;;13.83;7.30;;;;;;;;;;3387715;42;20147;-57
2022/07/17 03:30:20;;;;;;;10.27;5.72;;;;;;;;;;3388458;42;20246;-57
2022/07/17 03:32:45;;;;;;;9.15;5.82;;;;;;;;;;3389651;42;20084;-57
2022/07/17 03:35:11;;;;;;;10.47;6.20;;;;;;;;;;3388821;42;20094;-54
2022/07/17 03:37:38;;;;;;;9.05;5.78;;;;;;;;;;3386004;42;20094;-58
2022/07/17 03:40:07;;;;;;;10.50;5.90;;;;;;;;;;3387879;42;20125;-56
2022/07/17 03:42:33;;;;;;;9.50;5.43;;;;;;;;;;3386998;42;20157;-57
2022/07/17 03:44:59;;;;;;;9.25;5.70;;;;;;;;;;3389270;42;20687;-56
2022/07/17 03:47:25;;;;;;;9.93;5.80;;;;;;;;;;3386883;42;20549;-54
2022/07/17 03:49:51;;;;;;;8.80;5.35;;;;;;;;;;3390177;42;20083;-57
2022/07/17 03:52:17;;;;;;;10.07;5.05;;;;;;;;;;3378599;42;20549;-56
2022/07/17 03:54:43;;;;;;;10.00;5.18;;;;;;;;;;3388350;42;20091;-54
2022/07/17 03:57:09;;;;;;;7.90;5.03;;;;;;;;;;3389642;42;20603;-55
2022/07/17 03:59:35;;;;;;;9.00;4.40;;;;;;;;;;3386470;42;20086;-57
2022/07/17 04:02:01;;;;;;;6.60;3.65;;;;;;;;;;3389061;42;20094;-57
2022/07/17 04:04:27;;;;;;;7.80;3.70;;;;;;;;;;3389768;42;20636;-55
2022/07/17 04:06:53;;;;;;;10.93;3.60;;;;;;;;;;3389448;42;20191;-56
2022/07/17 04:09:19;;;;;;;6.40;3.40;;;;;;;;;;3388752;42;20082;-57
2022/07/17 04:11:50;;;;;;;6.85;2.97;;;;;;;;;;3371130;42;20163;-56
2022/07/17 04:14:18;;;;;;;7.70;3.25;;;;;;;;;;3375562;42;20142;-57
2022/07/17 04:16:44;;;;;;;6.87;3.00;;;;;;;;;;3388852;42;20086;-57
2022/07/17 04:19:10;;;;;;;7.63;3.25;;;;;;;;;;3388473;42;20141;-57
2022/07/17 04:21:36;;;;;;;6.05;3.13;;;;;;;;;;3378942;42;20082;-58
2022/07/17 04:24:02;;;;;;;6.37;3.20;;;;;;;;;;3390586;42;20081;-56
2022/07/17 04:26:28;;;;;;;7.28;3.55;;;;;;;;;;3390612;42;20564;-56
2022/07/17 04:28:54;;;;;;;6.40;3.08;;;;;;;;;;3394050;42;20130;-58
2022/07/17 04:31:20;;;;;;;6.47;3.15;;;;;;;;;;3387395;42;20161;-57
2022/07/17 04:33:46;;;;;;;6.30;3.00;;;;;;;;;;3390687;42;20134;-55
2022/07/17 04:36:12;;;;;;;7.03;2.80;;;;;;;;;;3386282;42;20083;-56
2022/07/17 04:38:38;;;;;;;7.40;3.20;;;;;;;;;;3379054;42;20496;-56
2022/07/17 04:41:04;;;;;;;6.63;3.27;;;;;;;;;;3387592;42;20082;-56
2022/07/17 04:43:30;;;;;;;7.17;3.30;;;;;;;;;;3387169;42;20278;-58
2022/07/17 04:45:56;;;;;;;6.40;3.40;;;;;;;;;;3389603;42;20103;-58
2022/07/17 04:48:22;;;;;;;6.80;3.72;;;;;;;;;;3392023;42;20075;-56
2022/07/17 04:50:51;;;;;;;7.07;3.40;;;;;;;;;;3390294;42;20087;-55
2022/07/17 04:53:16;;;;;;;8.52;3.50;;;;;;;;;;3392395;42;20098;-55
2022/07/17 04:55:42;;;;;;;7.13;3.58;;;;;;;;;;3388227;42;20155;-57
2022/07/17 04:58:08;;;;;;;6.65;3.60;;;;;;;;;;3394178;42;20090;-57
2022/07/17 05:00:34;;;;;;;9.10;3.80;;;;;;;;;;3389494;42;20126;-57
2022/07/17 05:03:01;;;;;;;7.00;3.40;;;;;;;;;;3388531;42;20568;-57
2022/07/17 05:05:27;;;;;;;7.80;3.47;;;;;;;;;;3393786;42;20557;-58
2022/07/17 05:07:53;;;;;;;7.03;3.80;;;;;;;;;;3393613;42;20237;-57
2022/07/17 05:10:19;;;;;;;5.97;3.50;;;;;;;;;;3390977;42;20094;-58
2022/07/17 05:12:45;;;;;;;8.13;3.73;;;;;;;;;;3392411;42;20091;-58
2022/07/17 05:15:11;;;;;;;8.35;3.63;;;;;;;;;;3389936;42;20134;-56
2022/07/17 05:17:36;;;;;;;9.75;4.30;;;;;;;;;;3387650;42;20074;-56
2022/07/17 05:20:04;;;;;;;8.90;3.90;;;;;;;;;;3393494;42;20098;-58
2022/07/17 05:22:29;;;;;;;6.68;3.58;;;;;;;;;;3391750;42;20094;-58
2022/07/17 05:25:07;;;;;;;6.63;3.58;;;;;;;;;;3385923;42;20075;-58
2022/07/17 05:27:38;;;;;;;7.47;3.50;;;;;;;;;;3385027;42;20087;-57
2022/07/17 05:30:25;;;;;;;8.60;3.90;;;;;;;;;;3386298;42;20539;-56
2022/07/17 05:32:51;;;;;;;10.30;3.63;;;;;;;;;;3390176;42;20102;-57
2022/07/17 05:35:35;;;;;;;8.32;4.65;;;;;;;;;;3390790;42;20097;-57
2022/07/17 05:38:06;;;;;;;8.05;3.63;;;;;;;;;;3378248;42;20161;-57
2022/07/17 05:40:33;;;;;;;7.28;3.80;;;;;;;;;;3391653;42;20091;-59
2022/07/17 05:43:05;;;;;;;8.73;4.07;;;;;;;;;;3390043;42;20093;-57
2022/07/17 05:45:32;;;;;;;8.10;4.43;;;;;;;;;;3389252;42;20078;-59
2022/07/17 05:47:58;;;;;;;7.20;4.53;;;;;;;;;;3391198;42;20642;-57
2022/07/17 05:50:24;;;;;;;7.70;4.50;;;;;;;;;;3389246;42;20555;-57
2022/07/17 05:52:53;;;;;;;9.53;4.37;;;;;;;;;;3380214;42;20173;-58
2022/07/17 05:55:19;;;;;;;7.10;4.57;;;;;;;;;;3384454;42;20501;-59
2022/07/17 05:57:45;;;;;;;7.53;4.30;;;;;;;;;;3390148;42;20094;-56
2022/07/17 06:00:11;;;;;;;6.72;4.28;;;;;;;;;;3390101;42;20554;-60
2022/07/17 06:02:41;;;;;;;8.43;4.55;;;;;;;;;;3387766;42;20074;-55
2022/07/17 06:05:12;;;;;;;8.33;4.70;;;;;;;;;;3382961;42;20121;-58
2022/07/17 06:07:39;;;;;;;8.63;5.07;;;;;;;;;;3383964;42;20098;-58
2022/07/17 06:15:58;;;;;;;7.78;4.95;;;;;;;;;;4467477;25;20092;-58
2022/07/17 06:18:34;;;;;;;8.53;4.77;;;;;;;;;;3362603;42;20139;-58
2022/07/17 06:21:22;;;;;;;12.52;5.00;;;;;;;;;;3356483;42;20170;-56
2022/07/17 06:23:48;;;;;;;7.75;4.43;;;;;;;;;;3357705;42;20204;-60
2022/07/17 06:26:14;;;;;;;7.90;4.90;;;;;;;;;;3359329;42;20484;-58
2022/07/17 06:28:40;;;;;;;7.97;4.67;;;;;;;;;;3358691;42;20088;-58
2022/07/17 06:31:06;;;;;;;9.48;4.95;;;;;;;;;;3368215;42;20152;-58
2022/07/17 06:33:32;;;;;;;10.05;4.82;;;;;;;;;;3370625;42;20197;-58
2022/07/17 06:35:58;;;;;;;9.43;4.40;;;;;;;;;;3369101;42;20083;-58
2022/07/17 06:38:24;;;;;;;7.20;4.57;;;;;;;;;;3368269;42;20762;-59
2022/07/17 06:40:50;;;;;;;7.25;4.40;;;;;;;;;;3359283;42;20084;-59
2022/07/17 06:43:16;;;;;;;9.05;4.20;;;;;;;;;;3362434;42;20555;-58
2022/07/17 06:45:42;;;;;;;7.75;4.50;;;;;;;;;;3362512;42;20558;-58
2022/07/17 06:48:08;;;;;;;7.43;3.93;;;;;;;;;;3362257;42;20110;-57
2022/07/17 06:50:35;;;;;;;6.80;4.10;;;;;;;;;;3361246;42;20084;-58
2022/07/17 06:53:01;;;;;;;7.35;4.10;;;;;;;;;;3362696;42;20143;-60
2022/07/17 06:55:27;;;;;;;9.05;3.88;;;;;;;;;;3360125;42;20099;-58
2022/07/17 06:58:14;;;;;;;7.60;3.80;;;;;;;;;;3360649;42;20088;-56
2022/07/17 07:00:47;;;;;;;6.82;3.72;;;;;;;;;;3357175;42;20164;-58
2022/07/17 07:03:18;;;;;;;8.38;3.55;;;;;;;;;;3360780;42;20561;-59
2022/07/17 07:05:50;;;;;;;6.50;3.40;;;;;;;;;;3357600;42;20187;-58
2022/07/17 07:08:26;;;;;;;11.20;3.60;;;;;;;;;;3356798;42;20166;-58
2022/07/17 07:10:53;;;;;;;8.10;3.57;;;;;;;;;;3358736;42;20095;-58
2022/07/17 07:13:21;;;;;;;8.60;3.40;;;;;;;;;;3359898;42;20122;-58
2022/07/17 07:16:27;;;;;;;8.27;3.60;;;;;;;;;;3356627;42;20566;-57
2022/07/17 07:18:54;;;;;;;8.70;3.47;;;;;;;;;;3352640;42;20191;-57
2022/07/17 07:21:22;;;;;;;6.40;3.03;;;;;;;;;;3352122;42;20526;-59
2022/07/17 07:23:49;;;;;;;7.25;3.10;;;;;;;;;;3352549;42;20670;-59
2022/07/17 07:26:18;;;;;;;7.70;3.45;;;;;;;;;;3352528;42;20119;-58
2022/07/17 07:28:53;;;;;;;7.38;3.13;;;;;;;;;;3341160;42;20109;-60
2022/07/17 07:31:20;;;;;;;6.55;2.97;;;;;;;;;;3343164;42;20118;-59
2022/07/17 07:33:48;;;;;;;8.00;3.10;;;;;;;;;;3349629;42;20096;-57
2022/07/17 07:36:18;;;;;;;5.85;2.75;;;;;;;;;;3345264;42;20521;-58
2022/07/17 07:38:50;;;;;;;6.43;2.90;;;;;;;;;;3344794;42;20092;-59
2022/07/17 07:41:20;;;;;;;5.57;2.80;;;;;;;;;;3355593;42;20092;-57
2022/07/17 07:43:46;;;;;;;5.70;2.58;;;;;;;;;;3352536;42;20100;-58
2022/07/17 07:46:18;;;;;;;5.43;2.50;;;;;;;;;;3350901;42;20135;-59
2022/07/17 07:48:44;;;;;;;6.72;2.70;;;;;;;;;;3353572;42;20092;-55
2022/07/17 07:51:11;;;;;;;5.25;2.55;;;;;;;;;;3351228;42;20088;-59
2022/07/17 07:53:37;;;;;;;5.63;2.70;;;;;;;;;;3353334;42;20107;-57
2022/07/17 07:56:03;;;;;;;5.87;2.80;;;;;;;;;;3352927;42;20088;-61
2022/07/17 07:58:29;;;;;;;5.90;2.80;;;;;;;;;;3358123;42;20091;-61
2022/07/17 08:00:55;;;;;;;5.68;2.75;;;;;;;;;;3353239;42;20092;-60
2022/07/17 08:03:21;;;;;;;5.93;2.63;;;;;;;;;;3345548;42;20084;-61
2022/07/17 08:05:47;;;;;;;6.17;2.70;;;;;;;;;;3356405;42;20097;-60
2022/07/17 08:08:13;;;;;;;6.45;2.60;;;;;;;;;;3356699;42;20115;-58
2022/07/17 08:10:39;;;;;;;5.70;2.70;;;;;;;;;;3350186;42;20088;-61
2022/07/17 08:13:15;;;;;;;5.97;2.60;;;;;;;;;;3341746;42;20107;-58
2022/07/17 08:16:12;;;;;;;5.70;2.80;;;;;;;;;;3353691;42;20185;-59
2022/07/17 08:19:17;;;;;;;6.57;2.60;;;;;;;;;;3348808;42;20152;-60
2022/07/17 08:21:58;;;;;;;7.25;3.00;;;;;;;;;;3354864;42;20080;-58
2022/07/17 08:24:39;;;;;;;5.72;2.80;;;;;;;;;;3355369;42;20088;-57
2022/07/17 08:27:13;;;;;;;5.35;2.53;;;;;;;;;;3353872;42;20096;-59
2022/07/17 08:29:51;;;;;;;5.88;2.75;;;;;;;;;;3353160;42;20533;-58
2022/07/17 08:32:42;;;;;;;5.13;2.43;;;;;;;;;;3344297;42;20095;-58
2022/07/17 08:35:25;;;;;;;7.30;2.80;;;;;;;;;;3352977;42;20101;-58
2022/07/17 08:38:38;;;;;;;6.38;2.70;;;;;;;;;;3354919;42;20084;-58
2022/07/17 08:41:36;;;;;;;8.13;2.80;;;;;;;;;;3336470;42;20112;-58
2022/07/17 08:44:38;;;;;;;5.10;2.50;;;;;;;;;;3354266;42;20111;-58
2022/07/17 08:47:35;;;;;;;6.00;2.77;;;;;;;;;;3354473;42;20151;-58
2022/07/17 08:50:19;;;;;;;6.15;2.85;;;;;;;;;;3330246;42;20103;-57
2022/07/17 08:53:37;;;;;;;5.68;2.90;;;;;;;;;;3354658;42;20108;-59
2022/07/17 08:56:25;;;;;;;6.65;2.88;;;;;;;;;;3351908;42;20139;-55
2022/07/17 08:59:51;;;;;;;5.70;2.90;;;;;;;;;;3352586;42;20148;-57
2022/07/17 09:03:03;;;;;;;5.87;2.63;;;;;;;;;;3337867;42;20196;-58
2022/07/17 09:05:46;;;;;;;6.18;2.88;;;;;;;;;;3348882;42;20504;-57
2022/07/17 09:08:38;;;;;;;9.13;3.00;;;;;;;;;;3339054;42;20091;-55
2022/07/17 09:11:35;;;;;;;8.10;2.65;;;;;;;;;;3346504;42;20115;-57
2022/07/17 09:14:48;;;;;;;6.50;2.80;;;;;;;;;;3350246;42;20111;-58
2022/07/17 09:17:32;;;;;;;6.00;2.60;;;;;;;;;;3345105;42;20140;-58
2022/07/17 09:20:21;;;;;;;7.75;2.70;;;;;;;;;;3346903;42;20593;-58
2022/07/17 09:23:16;;;;;;;6.22;2.50;;;;;;;;;;3346744;42;20096;-57
2022/07/17 09:25:54;;;;;;;5.95;2.20;;;;;;;;;;3347300;42;20088;-59
2022/07/17 09:28:54;;;;;;;6.28;2.60;;;;;;;;;;3333212;42;20648;-58
2022/07/17 09:31:34;;;;;;;7.40;2.70;;;;;;;;;;3356999;42;20106;-58
2022/07/17 09:34:00;;;;;;;6.57;2.50;;;;;;;;;;3355576;42;20119;-56
2022/07/17 09:36:26;;;;;;;5.75;2.30;;;;;;;;;;3349307;42;20093;-60
2022/07/17 09:38:56;;;;;;;5.47;2.17;;;;;;;;;;3355484;42;20091;-58
2022/07/17 09:41:23;;;;;;;5.05;2.47;;;;;;;;;;3353478;42;20136;-58
2022/07/17 09:43:52;;;;;;;5.50;2.50;;;;;;;;;;3345426;42;20100;-56
2022/07/17 09:46:27;;;;;;;6.10;2.70;;;;;;;;;;3354700;42;20140;-57
2022/07/17 09:48:59;;;;;;;5.68;2.35;;;;;;;;;;3352541;42;20143;-58
2022/07/17 09:51:55;;;;;;;4.97;2.25;;;;;;;;;;3351111;42;20096;-57
2022/07/17 09:54:26;;;;;;;5.20;2.17;;;;;;;;;;3351471;42;20100;-59
2022/07/17 09:56:57;;;;;;;5.20;2.17;;;;;;;;;;3334634;42;20085;-59
2022/07/17 09:59:26;;;;;;;5.43;1.90;;;;;;;;;;3343922;42;20600;-57
2022/07/17 10:01:51;;;;;;;6.43;2.10;;;;;;;;;;3344068;42;20132;-59
2022/07/17 10:04:20;;;;;;;5.80;2.50;;;;;;;;;;3353485;42;20089;-57
2022/07/17 10:06:49;;;;;;;6.00;2.20;;;;;;;;;;3345657;42;20155;-60
2022/07/17 10:09:24;;;;;;;5.90;2.10;;;;;;;;;;3341392;42;20555;-57
2022/07/17 10:11:50;;;;;;;7.30;2.38;;;;;;;;;;3351569;42;20140;-60
2022/07/17 10:14:16;;;;;;;5.97;2.20;;;;;;;;;;3347603;42;20569;-56
2022/07/17 10:16:45;;;;;;;5.78;2.05;;;;;;;;;;3345755;42;20560;-58
2022/07/17 10:19:23;;;;;;;5.78;2.28;;;;;;;;;;3357513;42;20144;-59
2022/07/17 10:21:56;;;;;;;5.37;2.37;;;;;;;;;;3346099;42;20159;-55
2022/07/17 10:24:22;;;;;;;4.80;2.20;;;;;;;;;;3351379;42;20084;-59
2022/07/17 10:27:05;;;;;;;5.30;2.20;;;;;;;;;;3343802;42;20080;-61
2022/07/17 10:29:43;;;;;;;6.53;2.30;;;;;;;;;;3350116;42;20089;-60
2022/07/17 10:32:31;;;;;;;5.40;2.08;;;;;;;;;;3358298;42;20554;-59
2022/07/17 10:35:15;;;;;;;5.27;2.30;;;;;;;;;;3348279;42;20126;-59
2022/07/17 10:37:42;;;;;;;6.35;2.38;;;;;;;;;;3352117;42;20104;-59
2022/07/17 10:40:29;;;;;;;6.13;2.50;;;;;;;;;;3353800;42;20099;-59
2022/07/17 10:42:57;;;;;;;6.57;2.38;;;;;;;;;;3351968;42;20104;-60
2022/07/17 10:45:33;;;;;;;7.80;2.50;;;;;;;;;;3353416;42;20127;-59
2022/07/17 10:48:24;;;;;;;6.40;2.60;;;;;;;;;;3344088;42;20462;-59
2022/07/17 10:50:55;;;;;;;5.57;2.65;;;;;;;;;;3350986;42;20550;-59
2022/07/17 10:53:32;;;;;;;6.50;2.83;;;;;;;;;;3355059;42;20096;-59
2022/07/17 10:56:05;;;;;;;6.25;2.80;;;;;;;;;;3353185;42;20088;-60
2022/07/17 10:58:42;;;;;;;5.93;2.65;;;;;;;;;;3350884;42;20560;-58
2022/07/17 11:01:25;;;;;;;10.63;2.80;;;;;;;;;;3350907;42;20085;-59
2022/07/17 11:03:56;;;;;;;7.05;3.10;;;;;;;;;;3355342;42;20096;-59
2022/07/17 11:06:49;;;;;;;6.85;2.83;;;;;;;;;;3352625;42;20084;-60
2022/07/17 11:09:16;;;;;;;5.82;2.90;;;;;;;;;;3352700;42;20229;-60
2022/07/17 11:11:59;;;;;;;5.30;2.80;;;;;;;;;;3353777;42;20092;-59
2022/07/17 11:14:31;;;;;;;5.73;2.77;;;;;;;;;;3348672;42;20541;-60
2022/07/17 11:17:01;;;;;;;7.05;2.83;;;;;;;;;;3352957;42;20095;-60
2022/07/17 11:19:31;;;;;;;6.63;2.75;;;;;;;;;;3350198;42;20104;-59
2022/07/17 11:21:59;;;;;;;6.93;2.92;;;;;;;;;;3353820;42;20107;-58
2022/07/17 11:24:26;;;;;;;6.07;2.90;;;;;;;;;;3354349;42;20115;-58
2022/07/17 11:26:52;;;;;;;5.83;2.70;;;;;;;;;;3352103;42;20599;-56
2022/07/17 11:29:18;;;;;;;5.60;2.90;;;;;;;;;;3342617;42;20562;-58
2022/07/17 11:31:44;;;;;;;5.93;2.90;;;;;;;;;;3355442;42;20160;-58
2022/07/17 11:34:11;;;;;;;6.60;2.70;;;;;;;;;;3343398;42;20177;-59
2022/07/17 11:36:38;;;;;;;6.55;3.00;;;;;;;;;;3339734;42;20096;-59
2022/07/17 11:39:10;;;;;;;8.47;3.33;;;;;;;;;;3354756;42;20119;-59
2022/07/17 11:42:07;;;;;;;7.30;2.50;;;;;;;;;;3348158;42;20106;-58
2022/07/17 11:44:43;;;;;;;5.97;2.70;;;;;;;;;;3340511;42;20084;-60
2022/07/17 11:47:23;;;;;;;5.38;2.35;;;;;;;;;;3353262;42;20128;-59
2022/07/17 11:49:50;;;;;;;5.80;2.70;;;;;;;;;;3343588;42;20106;-59
2022/07/17 11:52:18;;;;;;;5.80;2.70;;;;;;;;;;3352949;42;20104;-59
2022/07/17 11:54:54;;;;;;;8.43;2.80;;;;;;;;;;3341228;42;20151;-57
2022/07/17 11:57:21;;;;;;;6.88;2.72;;;;;;;;;;3346421;42;20498;-60
2022/07/17 11:59:47;;;;;;;5.57;2.60;;;;;;;;;;3350909;42;20568;-58
2022/07/17 12:02:14;;;;;;;6.35;2.70;;;;;;;;;;3342112;42;20212;-62
2022/07/17 12:04:54;;;;;;;7.57;2.67;;;;;;;;;;3351259;42;20132;-61
2022/07/17 12:07:20;;;;;;;5.88;2.30;;;;;;;;;;3354115;42;20215;-58
2022/07/17 12:09:46;;;;;;;5.22;2.20;;;;;;;;;;3343791;42;20131;-58
2022/07/17 12:12:23;;;;;;;5.20;2.50;;;;;;;;;;3350184;42;20115;-59
2022/07/17 12:15:01;;;;;;;6.10;2.50;;;;;;;;;;3356173;42;20103;-60
2022/07/17 12:17:39;;;;;;;5.13;2.38;;;;;;;;;;3356020;42;20084;-58
2022/07/17 12:20:07;;;;;;;5.15;2.50;;;;;;;;;;3356522;42;20096;-58
2022/07/17 12:22:48;;;;;;;5.80;2.40;;;;;;;;;;3352238;42;20084;-57
2022/07/17 12:25:24;;;;;;;7.05;2.50;;;;;;;;;;3348858;42;20171;-58
2022/07/17 12:27:50;;;;;;;6.23;2.70;;;;;;;;;;3353289;42;20148;-58
2022/07/17 12:30:16;;;;;;;5.10;2.50;;;;;;;;;;3353567;42;20104;-58
2022/07/17 12:32:48;;;;;;;5.88;2.60;;;;;;;;;;3334900;42;20585;-60
2022/07/17 12:35:15;;;;;;;5.60;2.70;;;;;;;;;;3351170;42;20563;-60
2022/07/17 12:37:41;;;;;;;6.32;2.67;;;;;;;;;;3351336;42;20156;-59
2022/07/17 12:40:07;;;;;;;7.73;2.40;;;;;;;;;;3351725;42;20612;-57
2022/07/17 12:42:33;;;;;;;6.22;2.90;;;;;;;;;;3356483;42;20089;-57
2022/07/17 12:44:59;;;;;;;6.47;2.58;;;;;;;;;;3351356;42;20080;-54
2022/07/17 12:47:28;;;;;;;6.22;2.50;;;;;;;;;;3352481;42;20514;-57
2022/07/17 12:49:54;;;;;;;10.43;2.40;;;;;;;;;;3356950;42;20596;-57
2022/07/17 12:52:22;;;;;;;7.05;2.30;;;;;;;;;;3351150;42;20104;-58
2022/07/17 12:54:48;;;;;;;13.23;3.33;;;;;;;;;;3355571;42;20103;-58
2022/07/17 12:57:14;;;;;;;41.13;4.90;;;;;;;;;;3354438;42;20240;-57
2022/07/17 12:59:40;;;;;;;9.27;2.77;;;;;;;;;;3355167;42;20626;-57
2022/07/17 13:02:06;;;;;;;7.07;3.25;;;;;;;;;;3350502;42;20114;-59
2022/07/17 13:04:32;;;;;;;35.85;4.13;;;;;;;;;;3354002;42;20096;-59
2022/07/17 13:06:58;;;;;;;46.28;5.90;;;;;;;;;;3356322;42;20107;-60
2022/07/17 13:09:23;;;;;;;14.90;5.23;;;;;;;;;;3355584;42;20135;-58
2022/07/17 13:11:51;;;;;;;18.33;4.72;;;;;;;;;;3353100;42;20620;-57
2022/07/17 13:14:20;;;;;;;9.60;3.70;;;;;;;;;;3352040;42;20140;-59
2022/07/17 13:16:46;;;;;;;15.18;7.90;;;;;;;;;;3356937;42;20155;-58
2022/07/17 13:19:12;;;;;;;6.90;3.20;;;;;;;;;;3352721;42;20159;-58
2022/07/17 13:21:39;;;;;;;6.30;3.50;;;;;;;;;;3342341;42;20100;-59
2022/07/17 13:24:05;;;;;;;9.60;4.20;;;;;;;;;;3354784;42;20085;-57
2022/07/17 13:26:36;;;;;;;16.17;7.32;;;;;;;;;;3355867;42;20571;-61
2022/07/17 13:29:04;;;;;;;10.70;5.40;;;;;;;;;;3353785;42;20123;-59
2022/07/17 13:31:30;;;;;;;9.32;3.75;;;;;;;;;;3353380;42;20100;-60
2022/07/17 13:33:56;;;;;;;6.95;2.50;;;;;;;;;;3353824;42;20159;-59
2022/07/17 13:36:22;;;;;;;5.40;2.20;;;;;;;;;;3353666;42;20080;-59
2022/07/17 13:38:56;;;;;;;5.33;2.40;;;;;;;;;;3357706;42;20166;-59
2022/07/17 13:41:22;;;;;;;5.03;2.10;;;;;;;;;;3352223;42;20159;-56
2022/07/17 13:43:48;;;;;;;6.43;2.45;;;;;;;;;;3352720;42;20120;-59
2022/07/17 13:46:14;;;;;;;7.35;2.40;;;;;;;;;;3357667;42;20092;-58
2022/07/17 13:48:41;;;;;;;6.40;2.70;;;;;;;;;;3346160;42;20153;-58
2022/07/17 13:51:22;;;;;;;7.63;2.53;;;;;;;;;;3347372;42;20220;-59
2022/07/17 13:53:48;;;;;;;8.40;3.42;;;;;;;;;;3352422;42;20084;-58
2022/07/17 13:56:13;;;;;;;5.90;2.85;;;;;;;;;;3347781;42;20594;-58
2022/07/17 13:58:39;;;;;;;8.33;3.23;;;;;;;;;;3350176;42;20169;-58
2022/07/17 14:01:05;;;;;;;6.82;3.40;;;;;;;;;;3353166;42;20084;-61
2022/07/17 14:03:40;;;;;;;6.07;3.10;;;;;;;;;;3352418;42;20574;-57
2022/07/17 14:06:06;;;;;;;6.70;3.15;;;;;;;;;;3349578;42;20850;-58
2022/07/17 14:08:32;;;;;;;6.07;3.00;;;;;;;;;;3347427;42;20176;-58
2022/07/17 14:10:58;;;;;;;6.88;3.00;;;;;;;;;;3356869;42;20589;-57
2022/07/17 14:13:24;;;;;;;7.38;3.08;;;;;;;;;;3351579;42;20156;-58
2022/07/17 14:15:50;;;;;;;8.13;3.00;;;;;;;;;;3346729;42;20108;-58
2022/07/17 14:18:16;;;;;;;7.23;3.10;;;;;;;;;;3343858;42;20574;-58
2022/07/17 14:20:44;;;;;;;6.95;3.10;;;;;;;;;;3355473;42;20120;-58
2022/07/17 14:23:11;;;;;;;6.05;2.97;;;;;;;;;;3345084;42;20854;-57
2022/07/17 14:25:57;;;;;;;7.57;2.85;;;;;;;;;;3354647;42;20600;-58
2022/07/17 14:28:39;;;;;;;6.35;2.90;;;;;;;;;;3342760;42;20602;-57
2022/07/17 14:31:16;;;;;;;14.57;5.60;;;;;;;;;;3347907;42;20565;-57
2022/07/17 14:33:43;;;;;;;6.85;3.17;;;;;;;;;;3353825;42;20573;-57
2022/07/17 14:36:11;;;;;;;8.00;3.72;;;;;;;;;;3350349;42;20158;-58
2022/07/17 14:38:37;;;;;;;7.57;3.30;;;;;;;;;;3352698;42;20093;-58
2022/07/17 14:41:03;;;;;;;6.23;3.30;;;;;;;;;;3355591;42;20127;-58
2022/07/17 14:43:29;;;;;;;8.25;4.07;;;;;;;;;;3357576;42;20080;-55
2022/07/17 14:45:55;;;;;;;6.63;3.25;;;;;;;;;;3348749;42;20120;-56
2022/07/17 14:48:26;;;;;;;7.57;3.80;;;;;;;;;;3345859;42;20510;-58
2022/07/17 14:50:59;;;;;;;7.18;3.80;;;;;;;;;;3348459;42;20151;-57
2022/07/17 14:53:24;;;;;;;7.40;3.73;;;;;;;;;;3353239;42;20110;-59
2022/07/17 14:55:50;;;;;;;6.95;3.13;;;;;;;;;;3351827;42;20088;-58
2022/07/17 14:58:16;;;;;;;10.27;5.05;;;;;;;;;;3343653;42;20551;-58
2022/07/17 15:00:49;;;;;;;6.50;3.55;;;;;;;;;;3351430;42;20095;-57
2022/07/17 15:03:29;;;;;;;6.27;3.33;;;;;;;;;;3356212;42;20180;-58
2022/07/17 15:05:56;;;;;;;7.22;3.78;;;;;;;;;;3352924;42;20084;-58